Fort Shaw, MT (59443)

1:10 PM MDT on May 29, 2015 (GMT -0600)
Infinity Lofts | | Change Station
CLOSE
Current Station
Personal Weather Station
Location: Sun River, MT
Elevation: 3488 ft
Nearby Weather Stations

Elev 3488 ft 47.55 °N, 111.72 °W | Updated 15 minutes ago

Overcast
Overcast
60.1 °F
Feels Like 60.1 °F
N
6.3
Wind Variable Wind from ESE

Today
High -- | Low -- °F
--% Chance of Precip.
Yesterday
High -- | Low -- °F
Precip. -- in
5:36 AM 9:13 PM
Waxing Gibbous, 85% visible
Pressure 30.22 in
Visibility 10.0 miles
Clouds Scattered Clouds 2300 ft
Dew Point 52 °F
Humidity 74%
Rainfall 0.00 in
Snow Depth Not available.
UV 9 out of 12
Pollen 7.20 out of 12
Air Quality Not available.
Flu Activity Sporadic
METAR KGTF 291853Z 07008KT 10SM SCT023 14/08 A3021 RMK AO2 SLP231 T01440083

More Conditions Fewer Conditions

Pressure 30.22 in
Visibility 10.0 miles
Clouds Scattered Clouds 2300 ft
Dew Point 52 °F
Humidity 74%
Rainfall 0.00 in
Snow Depth Not available.
UV 9 out of 12
Pollen 7.20 out of 12
Air Quality Not available.
Flu Activity Sporadic
METAR KGTF 291853Z 07008KT 10SM SCT023 14/08 A3021 RMK AO2 SLP231 T01440083

More Conditions Fewer Conditions

10-Day Weather Forecast

Almanac

Astronomy

May. 29, 2015 Rise Set
Actual Time
Civil Twilight
Nautical Twilight
Astronomical Twilight
Moon
Length of Visible Light
Length of Day
Tomorrow will be .
, % of the Moon is Illuminated

Today's Extremes

State Highs State Lows

Community

WunderPhotos

Upload Photos

1,825,330 photos uploaded!

WunderBlogs® & News

Nearby

Air Quality

  Air Quality AQ Index Pollutant
Not available.

Snow Depth

Station Depth Elevation

Earthquake Activity

City Distance Mag. Time & Date
Minimum magnitude displayed is 2.5.

Coastal Water Temperatures

Place Temperature

Stations

Nearby Weather Stations

Station Location Temp. Windchill Dew Point Humidity Wind Precip. Elev Updated Type